createdAt,value
2023-04-27T00:00:12.296Z,5.63
2023-04-27T00:01:12.841Z,5.63
2023-04-27T00:02:13.039Z,5.63
2023-04-27T00:03:13.652Z,5.63
2023-04-27T00:04:14.093Z,5.63
2023-04-27T00:05:15.231Z,5.63
2023-04-27T00:06:15.580Z,5.63
2023-04-27T00:07:15.882Z,5.64
2023-04-27T00:08:16.465Z,5.64
2023-04-27T00:09:17.002Z,5.65
2023-04-27T00:10:17.231Z,5.65
2023-04-27T00:10:26.649Z,5.56
2023-04-27T00:11:27.092Z,5.57
2023-04-27T00:12:27.542Z,5.58
2023-04-27T00:13:28.464Z,5.59
2023-04-27T00:14:29.083Z,5.59
2023-04-27T00:15:29.931Z,5.60
2023-04-27T00:16:30.561Z,5.60
2023-04-27T00:17:30.957Z,5.59
2023-04-27T00:18:31.502Z,5.59
2023-04-27T00:19:31.988Z,5.59
2023-04-27T00:20:33.736Z,5.60
2023-04-27T00:22:11.436Z,5.60
2023-04-27T00:23:11.860Z,5.60
2023-04-27T00:24:12.601Z,5.60
2023-04-27T00:25:13.132Z,5.60
2023-04-27T00:26:13.741Z,5.60
2023-04-27T00:27:14.279Z,5.60
2023-04-27T00:28:14.758Z,5.60
2023-04-27T00:29:15.105Z,5.59
2023-04-27T00:30:15.195Z,5.59
2023-04-27T00:31:15.691Z,5.59
2023-04-27T00:32:15.970Z,5.58
2023-04-27T00:33:16.252Z,5.58
2023-04-27T00:33:29.407Z,5.50
2023-04-27T00:34:28.406Z,5.51
2023-04-27T00:35:29.159Z,5.51
2023-04-27T00:36:29.877Z,5.51
2023-04-27T00:37:30.687Z,5.50
2023-04-27T00:38:31.515Z,5.50
2023-04-27T00:39:31.684Z,5.50
2023-04-27T00:40:32.205Z,5.50
2023-04-27T00:41:31.993Z,5.50
2023-04-27T00:42:32.905Z,5.51
2023-04-27T00:43:33.472Z,5.51
2023-04-27T00:44:33.845Z,5.51
2023-04-27T00:45:33.959Z,5.51
2023-04-27T00:45:46.710Z,5.46
2023-04-27T00:46:46.853Z,5.47
2023-04-27T00:47:47.575Z,5.47
2023-04-27T00:48:48.252Z,5.47
2023-04-27T00:49:48.889Z,5.47
2023-04-27T00:50:49.895Z,5.46
2023-04-27T00:51:50.162Z,5.46
2023-04-27T00:52:50.308Z,5.46
2023-04-27T00:53:50.978Z,5.46
2023-04-27T00:54:51.320Z,5.46
2023-04-27T00:55:51.733Z,5.46
2023-04-27T00:56:52.145Z,5.46
2023-04-27T00:57:01.836Z,5.27
2023-04-27T00:58:02.286Z,5.49
2023-04-27T00:59:02.638Z,5.49
2023-04-27T01:00:03.448Z,5.49
2023-04-27T01:01:04.121Z,5.49
2023-04-27T01:02:04.384Z,5.49
2023-04-27T01:03:05.128Z,5.49
2023-04-27T01:04:05.068Z,5.48
2023-04-27T01:05:05.316Z,5.48
2023-04-27T01:06:05.338Z,5.47
2023-04-27T01:07:06.224Z,5.47
2023-04-27T01:08:06.553Z,5.47
2023-04-27T01:09:07.200Z,5.46
2023-04-27T01:10:08.922Z,5.46
2023-04-27T01:11:08.365Z,5.45
2023-04-27T01:11:21.341Z,4.87
2023-04-27T01:12:20.801Z,5.14
2023-04-27T01:13:22.537Z,5.13
2023-04-27T01:14:22.181Z,5.12
2023-04-27T01:15:22.640Z,5.12
2023-04-27T01:16:23.063Z,5.12
2023-04-27T01:17:23.527Z,5.12
2023-04-27T01:18:24.233Z,5.11
2023-04-27T01:19:25.125Z,5.11
2023-04-27T01:20:27.204Z,5.10
2023-04-27T01:21:25.952Z,5.10
2023-04-27T01:21:36.128Z,5.09
2023-04-27T01:22:36.716Z,5.09
2023-04-27T01:23:37.227Z,5.09
2023-04-27T01:24:39.080Z,5.08
2023-04-27T01:25:38.594Z,5.07
2023-04-27T01:26:39.244Z,5.07
2023-04-27T01:27:40.060Z,5.06
2023-04-27T01:28:40.516Z,5.06
2023-04-27T01:29:40.983Z,5.06
2023-04-27T01:30:41.369Z,5.06
2023-04-27T01:31:41.891Z,5.06
2023-04-27T01:31:51.440Z,5.06
2023-04-27T01:32:52.113Z,5.06
2023-04-27T01:33:52.954Z,5.07
2023-04-27T01:34:53.549Z,5.07
2023-04-27T01:35:53.870Z,5.07
2023-04-27T01:36:54.448Z,5.07
2023-04-27T01:37:54.839Z,5.06
2023-04-27T01:38:55.545Z,5.06
2023-04-27T01:39:56.107Z,5.05
2023-04-27T01:40:56.621Z,5.05
2023-04-27T01:41:58.662Z,5.04
2023-04-27T01:42:57.751Z,5.03
2023-04-27T01:43:11.751Z,5.02
2023-04-27T01:44:11.989Z,5.01
2023-04-27T01:45:12.793Z,5.00
2023-04-27T01:46:13.523Z,5.00
2023-04-27T01:47:13.602Z,4.99
2023-04-27T01:48:14.200Z,4.99
2023-04-27T01:49:14.903Z,4.99
2023-04-27T01:50:15.049Z,4.99
2023-04-27T01:51:15.406Z,4.98
2023-04-27T01:52:15.928Z,4.97
2023-04-27T01:53:16.747Z,4.96
2023-04-27T01:54:17.625Z,4.95
2023-04-27T01:55:18.133Z,4.94
2023-04-27T01:56:18.951Z,4.93
2023-04-27T01:56:29.227Z,4.02
2023-04-27T01:57:29.727Z,4.07
2023-04-27T01:58:30.567Z,4.12
2023-04-27T01:59:31.574Z,4.17
2023-04-27T02:00:32.519Z,4.21
2023-04-27T02:01:34.338Z,4.24
2023-04-27T02:02:33.847Z,4.26
2023-04-27T02:03:34.618Z,4.29
2023-04-27T02:04:35.283Z,4.31
2023-04-27T02:05:35.328Z,4.32
2023-04-27T02:06:37.066Z,4.34
2023-04-27T02:07:36.980Z,4.36
2023-04-27T02:08:38.776Z,4.38
2023-04-27T02:08:48.895Z,4.40
2023-04-27T02:09:49.089Z,4.41
2023-04-27T02:10:49.934Z,4.43
2023-04-27T02:11:50.381Z,4.44
2023-04-27T02:12:51.079Z,4.44
2023-04-27T02:13:53.029Z,4.45
2023-04-27T02:14:52.649Z,4.46
2023-04-27T02:15:52.914Z,4.47
2023-04-27T02:16:53.634Z,4.47
2023-04-27T02:17:55.246Z,4.48
2023-04-27T02:18:54.599Z,4.49
2023-04-27T02:19:55.516Z,4.50
2023-04-27T02:20:56.199Z,4.50
2023-04-27T02:21:05.710Z,4.51
2023-04-27T02:22:05.742Z,4.52
2023-04-27T02:23:07.761Z,4.53
2023-04-27T02:24:06.733Z,4.53
2023-04-27T02:25:07.171Z,4.54
2023-04-27T02:26:07.954Z,4.55
2023-04-27T02:27:08.412Z,4.56
2023-04-27T02:28:09.322Z,4.57
2023-04-27T02:29:10.220Z,4.58
2023-04-27T02:30:11.026Z,4.59
2023-04-27T02:31:11.147Z,4.60
2023-04-27T02:32:11.583Z,4.60
2023-04-27T02:32:25.963Z,4.60
2023-04-27T02:33:25.760Z,4.61
2023-04-27T02:34:26.008Z,4.61
2023-04-27T02:35:26.418Z,4.62
2023-04-27T02:36:27.801Z,4.63
2023-04-27T02:37:27.497Z,4.64
2023-04-27T02:38:28.129Z,4.64
2023-04-27T02:39:28.310Z,4.65
2023-04-27T02:40:29.492Z,4.66
2023-04-27T02:41:29.367Z,4.67
2023-04-27T02:41:38.883Z,4.68
2023-04-27T02:42:39.200Z,4.69
2023-04-27T02:43:39.344Z,4.70
2023-04-27T02:44:39.364Z,4.72
2023-04-27T02:45:39.883Z,4.72
2023-04-27T02:46:40.238Z,4.73
2023-04-27T02:47:40.556Z,4.74
2023-04-27T02:48:41.441Z,4.74
2023-04-27T02:49:42.357Z,4.74
2023-04-27T02:50:42.660Z,4.75
2023-04-27T02:51:43.450Z,4.75
2023-04-27T02:52:44.107Z,4.75
2023-04-27T02:53:44.593Z,4.76
2023-04-27T02:54:44.935Z,4.76
2023-04-27T02:54:54.125Z,4.75
2023-04-27T02:55:54.966Z,4.75
2023-04-27T02:56:55.317Z,4.75
2023-04-27T02:57:55.812Z,4.75
2023-04-27T02:58:56.222Z,4.75
2023-04-27T02:59:56.604Z,4.75
2023-04-27T03:00:57.084Z,4.74
2023-04-27T03:01:57.347Z,4.74
2023-04-27T03:02:57.987Z,4.74
2023-04-27T03:03:58.386Z,4.73
2023-04-27T03:04:58.377Z,4.73
2023-04-27T03:05:07.133Z,4.72
2023-04-27T03:06:07.503Z,4.72
2023-04-27T03:07:07.926Z,4.71
2023-04-27T03:08:08.307Z,4.70
2023-04-27T03:09:08.765Z,4.69
2023-04-27T03:10:09.086Z,4.68
2023-04-27T03:11:09.995Z,4.67
2023-04-27T03:12:10.476Z,4.66
2023-04-27T03:13:10.973Z,4.64
2023-04-27T03:14:11.479Z,4.63
2023-04-27T03:15:11.881Z,4.61
2023-04-27T03:15:22.530Z,4.60
2023-04-27T03:16:22.967Z,4.59
2023-04-27T03:17:23.219Z,4.58
2023-04-27T03:18:24.000Z,4.56
2023-04-27T03:19:24.855Z,4.54
2023-04-27T03:20:25.377Z,4.52
2023-04-27T03:21:26.060Z,4.50
2023-04-27T03:22:26.361Z,4.47
2023-04-27T03:23:27.261Z,4.45
2023-04-27T03:24:27.493Z,4.43
2023-04-27T03:25:28.010Z,4.41
2023-04-27T03:25:38.142Z,4.39
2023-04-27T03:26:39.181Z,4.38
2023-04-27T03:27:38.551Z,4.37
2023-04-27T03:28:39.293Z,4.37
2023-04-27T03:29:39.733Z,4.36
2023-04-27T03:30:39.985Z,4.35
2023-04-27T03:31:40.087Z,4.34
2023-04-27T03:32:40.352Z,4.32
2023-04-27T03:33:41.175Z,4.31
2023-04-27T03:34:41.131Z,4.30
2023-04-27T03:35:41.706Z,4.28
2023-04-27T03:36:42.316Z,4.26
2023-04-27T03:36:50.958Z,4.25
2023-04-27T03:37:51.462Z,4.23
2023-04-27T03:38:51.737Z,4.22
2023-04-27T03:39:52.469Z,4.21
2023-04-27T03:40:52.644Z,4.20
2023-04-27T03:41:53.120Z,4.19
2023-04-27T03:42:53.389Z,4.17
2023-04-27T03:43:54.210Z,4.16
2023-04-27T03:44:54.764Z,4.14
2023-04-27T03:45:54.844Z,4.13
2023-04-27T03:46:55.155Z,4.11
2023-04-27T03:47:55.623Z,4.10
2023-04-27T03:48:04.317Z,4.02
2023-04-27T03:49:04.640Z,4.01
2023-04-27T03:50:05.008Z,4.00
2023-04-27T03:51:05.072Z,4.00
2023-04-27T03:52:05.509Z,3.99
2023-04-27T03:53:06.016Z,3.99
2023-04-27T03:54:06.832Z,3.98
2023-04-27T03:55:07.264Z,3.98
2023-04-27T03:56:08.193Z,3.97
2023-04-27T03:57:08.394Z,3.97
2023-04-27T03:58:09.286Z,3.97
2023-04-27T03:59:09.682Z,3.96
2023-04-27T03:59:18.813Z,3.96
2023-04-27T04:00:19.382Z,3.95
2023-04-27T04:01:19.868Z,3.95
2023-04-27T04:02:20.529Z,3.95
2023-04-27T04:03:22.214Z,3.95
2023-04-27T04:04:21.445Z,3.96
2023-04-27T04:05:21.853Z,3.96
2023-04-27T04:06:22.193Z,3.96
2023-04-27T04:07:23.019Z,3.96
2023-04-27T04:08:23.411Z,3.96
2023-04-27T04:09:24.207Z,3.96
2023-04-27T04:10:24.732Z,3.96
2023-04-27T04:10:33.362Z,3.91
2023-04-27T04:11:33.717Z,3.91
2023-04-27T04:12:34.603Z,3.91
2023-04-27T04:13:34.996Z,3.91
2023-04-27T04:14:35.374Z,3.91
2023-04-27T04:15:36.107Z,3.92
2023-04-27T04:16:36.442Z,3.92
2023-04-27T04:17:37.101Z,3.93
2023-04-27T04:18:37.240Z,3.93
2023-04-27T04:19:38.576Z,3.94
2023-04-27T04:20:38.025Z,3.94
2023-04-27T04:21:38.587Z,3.95
2023-04-27T04:21:48.331Z,3.96
2023-04-27T04:22:48.804Z,3.97
2023-04-27T04:23:49.364Z,3.97
2023-04-27T04:24:50.089Z,3.98
2023-04-27T04:25:50.757Z,3.98
2023-04-27T04:26:51.268Z,3.98
2023-04-27T04:27:51.698Z,3.99
2023-04-27T04:28:52.131Z,3.99
2023-04-27T04:29:52.346Z,3.99
2023-04-27T04:30:53.823Z,3.99
2023-04-27T04:31:53.330Z,3.99
2023-04-27T04:32:53.679Z,3.99
2023-04-27T04:33:54.389Z,3.99
2023-04-27T04:34:03.486Z,4.00
2023-04-27T04:35:03.882Z,4.00
2023-04-27T04:36:04.815Z,4.00
2023-04-27T04:37:05.230Z,4.01
2023-04-27T04:38:05.944Z,4.01
2023-04-27T04:39:06.470Z,4.02
2023-04-27T04:40:06.773Z,4.03
2023-04-27T04:41:08.334Z,4.04
2023-04-27T04:42:07.711Z,4.05
2023-04-27T04:43:08.169Z,4.05
2023-04-27T04:44:08.521Z,4.06
2023-04-27T04:45:08.995Z,4.07
2023-04-27T04:46:09.463Z,4.07
2023-04-27T04:46:24.648Z,4.07
2023-04-27T04:47:25.567Z,4.08
2023-04-27T04:48:25.672Z,4.08
2023-04-27T04:49:26.250Z,4.09
2023-04-27T04:50:27.224Z,4.10
2023-04-27T04:51:27.979Z,4.11
2023-04-27T04:52:28.467Z,4.11
2023-04-27T04:53:29.954Z,4.11
2023-04-27T04:54:29.400Z,4.12
2023-04-27T04:55:31.008Z,4.13
2023-04-27T04:56:30.329Z,4.14
2023-04-27T04:57:30.726Z,4.15
2023-04-27T04:58:31.604Z,4.15
2023-04-27T04:58:40.743Z,4.16
2023-04-27T04:59:41.024Z,4.17
2023-04-27T05:00:41.372Z,4.18
2023-04-27T05:01:41.766Z,4.19
2023-04-27T05:02:42.551Z,4.20
2023-04-27T05:03:43.253Z,4.22
2023-04-27T05:04:43.458Z,4.23
2023-04-27T05:05:43.718Z,4.25
2023-04-27T05:06:44.432Z,4.27
2023-04-27T05:07:45.005Z,4.28
2023-04-27T05:08:45.568Z,4.29
2023-04-27T05:09:45.987Z,4.30
2023-04-27T05:10:46.509Z,4.32
2023-04-27T05:10:55.130Z,3.51
2023-04-27T05:11:55.622Z,4.56
2023-04-27T05:12:56.149Z,4.56
2023-04-27T05:13:56.613Z,4.57
2023-04-27T05:14:57.082Z,4.56
2023-04-27T05:15:57.513Z,4.57
2023-04-27T05:16:58.072Z,4.57
2023-04-27T05:17:59.590Z,4.58
2023-04-27T05:18:58.929Z,4.59
2023-04-27T05:19:59.279Z,4.60
2023-04-27T05:20:59.722Z,4.61
2023-04-27T05:21:08.835Z,4.63
2023-04-27T05:22:09.299Z,4.64
2023-04-27T05:23:09.793Z,4.66
2023-04-27T05:24:10.306Z,4.67
2023-04-27T05:25:11.784Z,4.68
2023-04-27T05:26:11.166Z,4.69
2023-04-27T05:27:11.541Z,4.70
2023-04-27T05:28:13.214Z,4.72
2023-04-27T05:29:12.726Z,4.73
2023-04-27T05:30:12.821Z,4.75
2023-04-27T05:31:13.465Z,4.76
2023-04-27T05:31:22.098Z,4.77
2023-04-27T05:32:22.494Z,4.79
2023-04-27T05:33:22.980Z,4.81
2023-04-27T05:34:24.016Z,4.83
2023-04-27T05:35:24.280Z,4.85
2023-04-27T05:36:24.963Z,4.87
2023-04-27T05:37:25.295Z,4.88
2023-04-27T05:38:26.202Z,4.90
2023-04-27T05:39:26.639Z,4.92
2023-04-27T05:40:27.159Z,4.92
2023-04-27T05:41:27.541Z,4.93
2023-04-27T05:42:28.063Z,4.93
2023-04-27T05:42:38.280Z,4.94
2023-04-27T05:43:37.774Z,4.95
2023-04-27T05:44:38.180Z,4.97
2023-04-27T05:45:38.616Z,4.98
2023-04-27T05:46:39.080Z,4.99
2023-04-27T05:47:39.638Z,5.00
2023-04-27T05:48:39.844Z,5.01
2023-04-27T05:49:40.222Z,5.02
2023-04-27T05:50:40.685Z,5.03
2023-04-27T05:51:41.428Z,5.05
2023-04-27T05:52:41.991Z,5.07
2023-04-27T05:53:42.458Z,5.09
2023-04-27T05:54:42.859Z,5.11
2023-04-27T05:54:52.129Z,5.13
2023-04-27T05:55:52.494Z,5.15
2023-04-27T05:56:52.888Z,5.16
2023-04-27T05:58:04.600Z,5.16
2023-04-27T05:58:53.889Z,5.16
2023-04-27T05:59:54.392Z,5.16
2023-04-27T06:00:54.438Z,5.15
2023-04-27T06:01:54.806Z,5.15
2023-04-27T06:02:55.546Z,5.15
2023-04-27T06:03:55.915Z,5.15
2023-04-27T06:04:55.841Z,5.15
2023-04-27T06:05:58.653Z,5.16
2023-04-27T06:06:57.083Z,5.17
2023-04-27T06:07:06.500Z,5.12
2023-04-27T06:08:06.744Z,5.13
2023-04-27T06:09:07.151Z,5.14
2023-04-27T06:10:08.075Z,5.15
2023-04-27T06:11:08.612Z,5.17
2023-04-27T06:12:09.400Z,5.19
2023-04-27T06:13:09.974Z,5.20
2023-04-27T06:14:11.464Z,5.23
2023-04-27T06:15:10.771Z,5.25
2023-04-27T06:16:11.350Z,5.28
2023-04-27T06:17:11.662Z,5.31
2023-04-27T06:17:21.352Z,5.33
2023-04-27T06:18:21.979Z,5.37
2023-04-27T06:19:22.452Z,5.40
2023-04-27T06:20:22.799Z,5.43
2023-04-27T06:21:23.241Z,5.46
2023-04-27T06:22:23.693Z,5.48
2023-04-27T06:23:23.707Z,5.52
2023-04-27T06:24:24.067Z,5.56
2023-04-27T06:25:27.040Z,5.59
2023-04-27T06:26:24.617Z,5.62
2023-04-27T06:27:25.157Z,5.64
2023-04-27T06:28:25.482Z,5.66
2023-04-27T06:29:26.373Z,5.69
2023-04-27T06:29:36.048Z,5.69
2023-04-27T06:30:38.919Z,5.72
2023-04-27T06:31:37.026Z,5.76
2023-04-27T06:32:37.522Z,5.80
2023-04-27T06:33:38.219Z,5.85
2023-04-27T06:34:38.560Z,5.92
2023-04-27T06:35:39.295Z,6.00
2023-04-27T06:36:39.731Z,6.08
2023-04-27T06:37:39.715Z,6.18
2023-04-27T06:38:40.132Z,6.28
2023-04-27T06:39:40.652Z,6.40
2023-04-27T06:40:40.959Z,6.52
2023-04-27T06:41:41.392Z,6.64
2023-04-27T06:41:49.991Z,6.88
2023-04-27T06:42:50.510Z,8.32
2023-04-27T06:43:51.153Z,8.33
2023-04-27T06:44:51.995Z,8.34
2023-04-27T06:45:52.457Z,8.36
2023-04-27T06:46:53.109Z,8.36
2023-04-27T06:47:53.574Z,8.36
2023-04-27T06:48:54.026Z,8.36
2023-04-27T06:49:54.426Z,8.37
2023-04-27T06:50:54.877Z,8.39
2023-04-27T06:51:55.139Z,8.40
2023-04-27T06:52:56.147Z,8.43
2023-04-27T06:53:04.749Z,8.26
2023-04-27T06:54:05.077Z,9.36
2023-04-27T06:55:06.637Z,9.36
2023-04-27T06:56:06.367Z,9.38
2023-04-27T06:57:07.237Z,9.40
2023-04-27T06:58:07.717Z,9.44
2023-04-27T06:59:08.605Z,9.49
2023-04-27T07:00:09.011Z,9.54
2023-04-27T07:01:09.639Z,9.59
2023-04-27T07:02:10.033Z,9.67
2023-04-27T07:03:11.005Z,9.77
2023-04-27T07:04:11.726Z,9.90
2023-04-27T07:05:11.863Z,10.05
2023-04-27T07:05:22.623Z,10.28
2023-04-27T07:06:23.450Z,10.45
2023-04-27T07:07:24.096Z,10.63
2023-04-27T07:08:24.367Z,10.83
2023-04-27T07:09:27.819Z,11.06
2023-04-27T07:10:25.736Z,11.32
2023-04-27T07:11:26.390Z,11.59
2023-04-27T07:12:27.152Z,11.87
2023-04-27T07:13:27.746Z,12.17
2023-04-27T07:14:28.179Z,12.47
2023-04-27T07:15:28.968Z,12.76
2023-04-27T07:16:29.459Z,13.08
2023-04-27T07:17:30.286Z,13.42
2023-04-27T07:17:41.025Z,13.73
2023-04-27T07:18:43.453Z,14.03
2023-04-27T07:19:42.812Z,14.33
2023-04-27T07:20:43.225Z,14.66
2023-04-27T07:21:43.943Z,14.96
2023-04-27T07:22:44.748Z,15.27
2023-04-27T07:23:45.077Z,15.56
2023-04-27T07:24:46.048Z,15.80
2023-04-27T07:25:46.898Z,16.04
2023-04-27T07:26:47.621Z,16.28
2023-04-27T07:27:48.261Z,16.49
2023-04-27T07:27:57.899Z,12.02
2023-04-27T07:28:58.270Z,19.33
2023-04-27T07:29:58.633Z,19.35
2023-04-27T07:30:59.045Z,19.38
2023-04-27T07:31:59.560Z,19.42
2023-04-27T07:32:59.523Z,19.45
2023-04-27T07:33:59.496Z,19.49
2023-04-27T07:35:01.171Z,19.51
2023-04-27T07:36:01.124Z,19.55
2023-04-27T07:37:02.202Z,19.60
2023-04-27T07:38:02.910Z,19.61
2023-04-27T07:39:04.479Z,19.63
2023-04-27T07:40:03.758Z,19.64
2023-04-27T07:41:04.645Z,19.67
2023-04-27T07:42:04.993Z,19.68
2023-04-27T07:42:13.789Z,13.34
2023-04-27T07:43:15.727Z,19.43
2023-04-27T07:44:15.272Z,19.43
2023-04-27T07:45:15.714Z,19.41
2023-04-27T07:46:16.520Z,19.39
2023-04-27T07:47:16.853Z,19.38
2023-04-27T07:48:17.442Z,19.32
2023-04-27T07:49:17.468Z,19.30
2023-04-27T07:50:17.460Z,19.25
2023-04-27T07:51:17.784Z,19.24
2023-04-27T07:52:18.330Z,19.21
2023-04-27T07:53:18.758Z,19.17
2023-04-27T07:54:19.616Z,19.11
2023-04-27T07:55:20.458Z,19.05
2023-04-27T07:55:36.446Z,18.73
2023-04-27T07:56:37.200Z,18.73
2023-04-27T07:57:38.084Z,18.71
2023-04-27T07:58:38.546Z,18.68
2023-04-27T07:59:38.804Z,18.64
2023-04-27T08:00:39.325Z,18.62
2023-04-27T08:01:39.823Z,18.58
2023-04-27T08:02:41.628Z,18.53
2023-04-27T08:03:40.872Z,18.50
2023-04-27T08:04:40.748Z,18.49
2023-04-27T08:05:41.374Z,18.48
2023-04-27T08:05:52.128Z,18.16
2023-04-27T08:06:52.335Z,18.13
2023-04-27T08:07:52.270Z,18.10
2023-04-27T08:08:53.074Z,18.10
2023-04-27T08:09:53.429Z,18.07
2023-04-27T08:10:54.258Z,18.04
2023-04-27T08:11:55.227Z,18.01
2023-04-27T08:12:55.866Z,17.99
2023-04-27T08:14:25.616Z,12.09
2023-04-27T08:15:25.568Z,17.29
2023-04-27T08:16:26.091Z,17.29
2023-04-27T08:17:26.426Z,17.28
2023-04-27T08:18:27.374Z,17.25
2023-04-27T08:19:28.274Z,17.24
2023-04-27T08:20:28.941Z,17.19
2023-04-27T08:21:29.199Z,17.16
2023-04-27T08:22:29.233Z,17.14
2023-04-27T08:23:30.085Z,17.11
2023-04-27T08:24:30.726Z,17.07
2023-04-27T08:25:31.054Z,17.04
2023-04-27T08:26:31.982Z,16.99
2023-04-27T08:27:32.663Z,16.96
2023-04-27T08:28:34.347Z,16.92
2023-04-27T08:29:34.284Z,16.89
2023-04-27T08:30:35.496Z,16.85
2023-04-27T08:30:45.141Z,11.77
2023-04-27T08:31:45.301Z,16.35
2023-04-27T08:32:45.774Z,16.35
2023-04-27T08:33:45.882Z,16.35
2023-04-27T08:34:46.767Z,16.36
2023-04-27T08:35:46.967Z,16.31
2023-04-27T08:36:47.847Z,16.28
2023-04-27T08:37:49.740Z,16.26
2023-04-27T08:38:49.573Z,16.24
2023-04-27T08:39:49.819Z,16.21
2023-04-27T08:40:03.363Z,13.18
2023-04-27T08:41:18.082Z,15.62
2023-04-27T08:42:03.728Z,15.60
2023-04-27T08:43:04.725Z,15.58
2023-04-27T08:44:04.897Z,15.58
2023-04-27T08:45:05.044Z,15.58
2023-04-27T08:46:05.356Z,15.56
2023-04-27T08:47:06.196Z,15.54
2023-04-27T08:48:06.406Z,15.51
2023-04-27T08:49:06.992Z,15.49
2023-04-27T08:50:07.822Z,15.46
2023-04-27T08:50:21.405Z,12.26
2023-04-27T08:51:21.504Z,15.03
2023-04-27T08:52:22.399Z,15.02
2023-04-27T08:53:22.484Z,15.02
2023-04-27T08:54:23.700Z,15.02
2023-04-27T08:55:23.601Z,15.02
2023-04-27T08:56:23.704Z,15.00
2023-04-27T08:57:24.210Z,14.98
2023-04-27T08:58:24.554Z,14.98
2023-04-27T08:59:25.386Z,14.97
2023-04-27T09:00:26.644Z,14.96
2023-04-27T09:01:26.456Z,14.96
2023-04-27T09:01:39.550Z,9.68
2023-04-27T09:02:39.669Z,14.90
2023-04-27T09:03:40.147Z,14.90
2023-04-27T09:04:40.328Z,14.92
2023-04-27T09:05:49.492Z,14.93
2023-04-27T09:06:41.578Z,14.95
2023-04-27T09:07:41.780Z,14.96
2023-04-27T09:08:41.979Z,14.97
2023-04-27T09:09:42.875Z,14.97
2023-04-27T09:10:43.720Z,14.98
2023-04-27T09:10:53.392Z,12.77
2023-04-27T09:11:56.789Z,15.46
2023-04-27T09:12:55.154Z,15.45
2023-04-27T09:13:56.032Z,15.45
2023-04-27T09:14:56.773Z,15.46
2023-04-27T09:15:57.299Z,15.46
2023-04-27T09:16:58.191Z,15.44
2023-04-27T09:17:58.708Z,15.42
2023-04-27T09:18:59.266Z,15.40
2023-04-27T09:19:59.452Z,15.38
2023-04-27T09:20:59.529Z,15.37
2023-04-27T09:21:59.900Z,15.37
2023-04-27T09:23:00.498Z,15.37
2023-04-27T09:24:01.040Z,15.37
2023-04-27T09:25:02.071Z,15.36
2023-04-27T09:26:02.480Z,15.34
2023-04-27T09:27:02.758Z,15.33
2023-04-27T09:27:12.143Z,11.33
2023-04-27T09:28:12.278Z,15.20
2023-04-27T09:29:13.298Z,15.21
2023-04-27T09:30:13.669Z,15.20
2023-04-27T09:31:14.213Z,15.21
2023-04-27T09:32:16.617Z,15.22
2023-04-27T09:33:14.853Z,15.23
2023-04-27T09:34:15.678Z,15.25
2023-04-27T09:35:16.421Z,15.26
2023-04-27T09:36:17.253Z,15.27
2023-04-27T09:37:17.818Z,15.29
2023-04-27T09:38:18.156Z,15.31
2023-04-27T09:39:18.985Z,15.34
2023-04-27T09:39:28.282Z,12.46
2023-04-27T09:40:29.844Z,15.65
2023-04-27T09:41:29.666Z,15.65
2023-04-27T09:42:30.618Z,15.64
2023-04-27T09:43:31.332Z,15.62
2023-04-27T09:44:32.560Z,15.61
2023-04-27T09:45:32.274Z,15.61
2023-04-27T09:46:33.102Z,15.61
2023-04-27T09:47:39.652Z,15.62
2023-04-27T09:48:35.378Z,15.63
2023-04-27T09:49:35.206Z,15.62
2023-04-27T09:50:37.396Z,15.63
2023-04-27T09:51:36.088Z,15.64
2023-04-27T09:52:36.279Z,15.65
2023-04-27T09:53:37.086Z,15.67
2023-04-27T09:53:53.798Z,15.49
2023-04-27T09:54:54.528Z,15.51
2023-04-27T09:55:54.845Z,15.55
2023-04-27T09:56:55.548Z,15.59
2023-04-27T09:57:56.272Z,15.63
2023-04-27T09:58:59.674Z,15.67
2023-04-27T09:59:57.574Z,15.72
2023-04-27T10:00:58.519Z,15.75
2023-04-27T10:02:02.792Z,15.78
2023-04-27T10:02:58.843Z,15.81
2023-04-27T10:03:59.769Z,15.85
2023-04-27T10:05:00.014Z,15.89
2023-04-27T10:05:27.191Z,12.56
2023-04-27T10:06:28.143Z,16.61
2023-04-27T10:07:27.973Z,16.61
2023-04-27T10:08:27.956Z,16.61
2023-04-27T10:09:31.568Z,16.61
2023-04-27T10:10:29.265Z,16.62
2023-04-27T10:11:30.113Z,16.62
2023-04-27T10:12:30.856Z,16.62
2023-04-27T10:13:31.099Z,16.64
2023-04-27T10:14:32.002Z,16.65
2023-04-27T10:15:32.973Z,16.66
2023-04-27T10:16:33.836Z,16.67
2023-04-27T10:16:48.397Z,13.68
2023-04-27T10:17:48.410Z,16.80
2023-04-27T10:18:48.389Z,16.80
2023-04-27T10:19:49.703Z,16.80
2023-04-27T10:20:49.219Z,16.81
2023-04-27T10:21:50.729Z,16.82
2023-04-27T10:22:50.320Z,16.83
2023-04-27T10:23:50.579Z,16.84
2023-04-27T10:24:51.389Z,16.85
2023-04-27T10:25:51.487Z,16.86
2023-04-27T10:26:51.925Z,16.87
2023-04-27T10:27:53.778Z,16.89
2023-04-27T10:28:54.652Z,16.91
2023-04-27T10:29:54.334Z,16.91
2023-04-27T10:30:12.709Z,13.55
2023-04-27T10:31:13.658Z,16.90
2023-04-27T10:32:13.922Z,16.90
2023-04-27T10:33:14.595Z,16.89
2023-04-27T10:34:14.743Z,16.88
2023-04-27T10:35:14.942Z,16.87
2023-04-27T10:36:14.988Z,16.86
2023-04-27T10:37:15.349Z,16.84
2023-04-27T10:38:16.218Z,16.82
2023-04-27T10:39:17.072Z,16.81
2023-04-27T10:40:17.680Z,16.80
2023-04-27T10:41:18.309Z,16.78
2023-04-27T10:41:27.526Z,13.14
2023-04-27T10:42:28.472Z,16.63
2023-04-27T10:43:28.760Z,16.63
2023-04-27T10:44:29.188Z,16.65
2023-04-27T10:45:31.712Z,16.67
2023-04-27T10:46:29.669Z,16.68
2023-04-27T10:47:30.478Z,16.69
2023-04-27T10:48:30.750Z,16.70
2023-04-27T10:49:31.576Z,16.72
2023-04-27T10:50:31.868Z,16.73
2023-04-27T10:51:32.257Z,16.74
2023-04-27T10:52:33.088Z,16.75
2023-04-27T10:53:33.306Z,16.75
2023-04-27T10:53:46.926Z,13.45
2023-04-27T10:54:47.787Z,16.77
2023-04-27T10:55:49.257Z,16.78
2023-04-27T10:56:49.065Z,16.79
2023-04-27T10:57:49.462Z,16.82
2023-04-27T10:58:50.324Z,16.84
2023-04-27T10:59:50.843Z,16.86
2023-04-27T11:00:51.655Z,16.87
2023-04-27T11:01:52.426Z,16.89
2023-04-27T11:02:53.288Z,16.92
2023-04-27T11:03:53.677Z,16.95
2023-04-27T11:04:54.065Z,16.98
2023-04-27T11:05:05.702Z,13.69
2023-04-27T11:06:06.408Z,17.33
2023-04-27T11:07:06.760Z,17.33
2023-04-27T11:08:07.622Z,17.34
2023-04-27T11:09:08.400Z,17.35
2023-04-27T11:10:09.435Z,17.36
2023-04-27T11:11:10.205Z,17.38
2023-04-27T11:12:11.481Z,17.38
2023-04-27T11:13:11.427Z,17.37
2023-04-27T11:14:13.400Z,17.38
2023-04-27T11:15:12.788Z,17.39
2023-04-27T11:16:14.694Z,17.39
2023-04-27T11:17:16.740Z,17.38
2023-04-27T11:18:15.726Z,17.38
2023-04-27T11:19:15.804Z,17.38
2023-04-27T11:20:15.745Z,17.39
2023-04-27T11:21:16.520Z,17.41
2023-04-27T11:22:17.484Z,17.42
2023-04-27T11:23:17.791Z,17.43
2023-04-27T11:24:18.695Z,17.45
2023-04-27T11:25:18.938Z,17.46
2023-04-27T11:26:20.176Z,17.46
2023-04-27T11:27:20.369Z,17.47
2023-04-27T11:28:20.318Z,17.47
2023-04-27T11:29:21.097Z,17.47
2023-04-27T11:29:40.631Z,13.71
2023-04-27T11:30:40.340Z,17.55
2023-04-27T11:31:41.212Z,17.55
2023-04-27T11:32:42.139Z,17.56
2023-04-27T11:33:42.347Z,17.56
2023-04-27T11:34:43.450Z,17.55
2023-04-27T11:36:24.579Z,15.00
2023-04-27T11:37:24.269Z,17.47
2023-04-27T11:38:25.185Z,17.48
2023-04-27T11:39:25.941Z,17.49
2023-04-27T11:40:26.811Z,17.50
2023-04-27T11:41:57.492Z,15.26
2023-04-27T11:42:58.382Z,17.62
2023-04-27T11:43:59.226Z,17.62
2023-04-27T11:44:59.569Z,17.62
2023-04-27T11:46:00.403Z,17.63
2023-04-27T11:47:01.207Z,17.65
2023-04-27T11:48:01.661Z,17.67
2023-04-27T11:49:01.735Z,17.69
2023-04-27T11:50:02.317Z,17.71
2023-04-27T11:51:02.392Z,17.73
2023-04-27T11:52:03.412Z,17.73
2023-04-27T11:53:03.509Z,17.74
2023-04-27T11:54:04.558Z,17.75
2023-04-27T11:55:04.644Z,17.77
2023-04-27T11:56:05.043Z,17.79
2023-04-27T11:56:26.734Z,13.90
2023-04-27T11:57:26.505Z,18.14
2023-04-27T11:58:26.732Z,18.14
2023-04-27T11:59:27.749Z,18.14
2023-04-27T12:00:28.386Z,18.15
2023-04-27T12:01:37.612Z,18.14
2023-04-27T12:02:29.790Z,18.13
2023-04-27T12:04:02.815Z,14.62
2023-04-27T12:05:03.087Z,16.93
2023-04-27T12:06:21.592Z,16.96
2023-04-27T12:07:04.483Z,17.00
2023-04-27T12:08:05.374Z,17.04
2023-04-27T12:09:06.198Z,17.09
2023-04-27T12:10:07.017Z,17.13
2023-04-27T12:11:08.177Z,17.18
2023-04-27T12:12:07.909Z,17.23
2023-04-27T12:13:10.466Z,17.27
2023-04-27T12:13:18.570Z,12.45
2023-04-27T12:14:20.365Z,17.87
2023-04-27T12:15:19.445Z,17.88
2023-04-27T12:16:20.265Z,17.90
2023-04-27T12:17:20.364Z,17.91
2023-04-27T12:18:21.277Z,17.94
2023-04-27T12:19:21.265Z,17.98
2023-04-27T12:20:21.962Z,18.01
2023-04-27T12:21:22.887Z,18.02
2023-04-27T12:22:22.968Z,18.03
2023-04-27T12:23:23.829Z,18.03
2023-04-27T12:24:24.115Z,18.02
2023-04-27T12:25:24.254Z,18.01
2023-04-27T12:26:24.671Z,18.01
2023-04-27T12:27:25.298Z,18.02
2023-04-27T12:28:26.096Z,18.03
2023-04-27T12:29:28.985Z,18.04